createdAt,value
2018-07-05T00:00:40.432Z,964.16
2018-07-05T00:01:40.392Z,964.18
2018-07-05T00:02:40.346Z,964.14
2018-07-05T00:03:40.299Z,964.14
2018-07-05T00:04:40.290Z,964.14
2018-07-05T00:05:40.252Z,964.12
2018-07-05T00:06:40.171Z,964.10
2018-07-05T00:07:40.133Z,964.07
2018-07-05T00:08:40.082Z,964.12
2018-07-05T00:09:40.037Z,964.14
2018-07-05T00:10:40.027Z,964.12
2018-07-05T00:11:39.998Z,964.15
2018-07-05T00:12:39.904Z,964.15
2018-07-05T00:13:39.860Z,964.16
2018-07-05T00:14:39.816Z,964.19
2018-07-05T00:15:39.779Z,964.16
2018-07-05T00:16:39.768Z,964.14
2018-07-05T00:17:39.682Z,964.18
2018-07-05T00:18:39.640Z,964.17
2018-07-05T00:19:39.595Z,964.22
2018-07-05T00:20:39.551Z,964.23
2018-07-05T00:21:39.537Z,964.23
2018-07-05T00:22:39.503Z,964.23
2018-07-05T00:23:39.417Z,964.25
2018-07-05T00:24:39.374Z,964.25
2018-07-05T00:25:39.329Z,964.26
2018-07-05T00:26:39.287Z,964.22
2018-07-05T00:27:39.283Z,964.19
2018-07-05T00:28:39.203Z,964.20
2018-07-05T00:29:39.153Z,964.20
2018-07-05T00:30:39.109Z,964.16
2018-07-05T00:31:39.065Z,964.11
2018-07-05T00:32:39.059Z,964.08
2018-07-05T00:33:38.977Z,964.07
2018-07-05T00:34:38.929Z,964.09
2018-07-05T00:35:38.889Z,964.10
2018-07-05T00:36:38.842Z,964.10
2018-07-05T00:37:38.838Z,964.10
2018-07-05T00:38:38.753Z,964.13
2018-07-05T00:39:38.712Z,964.15
2018-07-05T00:40:38.668Z,964.18
2018-07-05T00:41:38.625Z,964.15
2018-07-05T00:42:38.613Z,964.16
2018-07-05T00:43:38.535Z,964.17
2018-07-05T00:44:38.522Z,964.17
2018-07-05T00:45:38.448Z,964.22
2018-07-05T00:46:38.401Z,964.20
2018-07-05T00:47:38.388Z,964.20
2018-07-05T00:48:38.313Z,964.19
2018-07-05T00:49:38.265Z,964.19
2018-07-05T00:50:38.224Z,964.19
2018-07-05T00:51:38.179Z,964.18
2018-07-05T00:52:38.184Z,964.20
2018-07-05T00:53:38.091Z,964.21
2018-07-05T00:54:38.046Z,964.19
2018-07-05T00:55:38.001Z,964.20
2018-07-05T00:56:37.963Z,964.18
2018-07-05T00:57:37.944Z,964.17
2018-07-05T00:58:37.867Z,964.20
2018-07-05T00:59:37.821Z,964.18
2018-07-05T01:00:37.777Z,964.21
2018-07-05T01:01:37.732Z,964.23
2018-07-05T01:02:37.768Z,964.22
2018-07-05T01:03:37.694Z,964.18
2018-07-05T01:04:37.600Z,964.18
2018-07-05T01:05:37.558Z,964.17
2018-07-05T01:06:37.511Z,964.11
2018-07-05T01:07:37.468Z,964.10
2018-07-05T01:08:37.454Z,964.08
2018-07-05T01:09:37.377Z,964.09
2018-07-05T01:10:37.336Z,964.08
2018-07-05T01:11:37.287Z,964.10
2018-07-05T01:12:37.292Z,964.08
2018-07-05T01:13:37.197Z,964.10
2018-07-05T01:14:37.155Z,964.08
2018-07-05T01:15:37.110Z,964.09
2018-07-05T01:16:37.067Z,964.05
2018-07-05T01:17:37.051Z,964.02
2018-07-05T01:18:36.974Z,963.99
2018-07-05T01:19:36.930Z,963.99
2018-07-05T01:20:36.887Z,963.97
2018-07-05T01:21:36.841Z,963.96
2018-07-05T01:22:36.833Z,963.93
2018-07-05T01:23:36.752Z,963.89
2018-07-05T01:24:36.708Z,963.88
2018-07-05T01:25:36.663Z,963.85
2018-07-05T01:26:36.617Z,963.84
2018-07-05T01:27:36.608Z,963.83
2018-07-05T01:28:36.529Z,963.82
2018-07-05T01:29:36.486Z,963.85
2018-07-05T01:30:36.439Z,963.85
2018-07-05T01:31:36.393Z,963.83
2018-07-05T01:32:36.381Z,963.87
2018-07-05T01:33:36.304Z,963.91
2018-07-05T01:34:36.259Z,963.93
2018-07-05T01:35:36.216Z,963.95
2018-07-05T01:36:36.213Z,963.95
2018-07-05T01:37:36.124Z,963.97
2018-07-05T01:38:36.085Z,964.04
2018-07-05T01:39:36.042Z,964.05
2018-07-05T01:40:35.992Z,964.01
2018-07-05T01:41:35.980Z,964.01
2018-07-05T01:42:35.902Z,963.99
2018-07-05T01:43:35.897Z,963.98
2018-07-05T01:44:35.813Z,963.97
2018-07-05T01:45:35.765Z,964.00
2018-07-05T01:46:35.720Z,964.04
2018-07-05T01:47:35.679Z,964.03
2018-07-05T01:48:35.668Z,964.03
2018-07-05T01:49:35.586Z,964.06
2018-07-05T01:50:35.566Z,964.07
2018-07-05T01:51:35.498Z,964.04
2018-07-05T01:52:35.456Z,964.06
2018-07-05T01:53:35.439Z,964.05
2018-07-05T01:54:35.396Z,964.02
2018-07-05T01:55:35.323Z,964.00
2018-07-05T01:56:35.275Z,963.98
2018-07-05T01:57:35.228Z,963.95
2018-07-05T01:58:35.188Z,963.94
2018-07-05T01:59:35.171Z,963.96
2018-07-05T02:00:35.093Z,963.94
2018-07-05T02:01:35.050Z,963.95
2018-07-05T02:02:35.007Z,963.95
2018-07-05T02:03:34.960Z,963.96
2018-07-05T02:04:34.944Z,963.94
2018-07-05T02:05:34.869Z,963.95
2018-07-05T02:06:34.829Z,963.93
2018-07-05T02:07:34.783Z,963.94
2018-07-05T02:08:34.735Z,963.98
2018-07-05T02:09:34.725Z,963.97
2018-07-05T02:10:34.644Z,963.99
2018-07-05T02:11:34.633Z,963.96
2018-07-05T02:12:34.559Z,963.97
2018-07-05T02:13:34.509Z,963.94
2018-07-05T02:14:34.528Z,963.94
2018-07-05T02:15:34.419Z,963.98
2018-07-05T02:16:34.409Z,963.96
2018-07-05T02:17:34.330Z,963.96
2018-07-05T02:18:34.321Z,963.98
2018-07-05T02:19:34.245Z,963.95
2018-07-05T02:20:34.200Z,963.95
2018-07-05T02:21:34.152Z,963.96
2018-07-05T02:22:34.105Z,963.92
2018-07-05T02:23:34.094Z,963.94
2018-07-05T02:24:34.017Z,963.92
2018-07-05T02:25:34.005Z,963.94
2018-07-05T02:26:33.927Z,963.97
2018-07-05T02:27:33.887Z,963.96
2018-07-05T02:28:33.835Z,963.94
2018-07-05T02:29:33.792Z,963.91
2018-07-05T02:30:33.783Z,963.90
2018-07-05T02:31:33.704Z,963.91
2018-07-05T02:32:33.657Z,963.89
2018-07-05T02:33:33.613Z,963.89
2018-07-05T02:34:33.599Z,963.86
2018-07-05T02:35:33.530Z,963.92
2018-07-05T02:36:33.477Z,963.90
2018-07-05T02:37:33.429Z,963.87
2018-07-05T02:38:33.387Z,963.87
2018-07-05T02:39:33.373Z,963.86
2018-07-05T02:40:33.297Z,963.86
2018-07-05T02:41:33.250Z,963.87
2018-07-05T02:42:33.204Z,963.84
2018-07-05T02:43:33.193Z,963.83
2018-07-05T02:44:33.144Z,963.85
2018-07-05T02:45:33.108Z,963.86
2018-07-05T02:46:33.024Z,963.89
2018-07-05T02:47:32.981Z,963.91
2018-07-05T02:48:32.934Z,963.87
2018-07-05T02:49:32.890Z,963.90
2018-07-05T02:50:32.876Z,963.91
2018-07-05T02:51:32.802Z,963.89
2018-07-05T02:52:32.756Z,963.94
2018-07-05T02:53:32.711Z,963.93
2018-07-05T02:54:32.704Z,963.90
2018-07-05T02:55:32.617Z,963.93
2018-07-05T02:56:32.569Z,963.92
2018-07-05T02:57:32.524Z,963.91
2018-07-05T02:58:32.479Z,963.85
2018-07-05T02:59:32.467Z,963.87
2018-07-05T03:00:32.390Z,963.85
2018-07-05T03:01:32.375Z,963.83
2018-07-05T03:02:32.301Z,963.84
2018-07-05T03:03:32.254Z,963.81
2018-07-05T03:04:32.206Z,963.82
2018-07-05T03:05:32.195Z,963.85
2018-07-05T03:06:32.152Z,963.83
2018-07-05T03:07:32.073Z,963.83
2018-07-05T03:08:32.040Z,963.86
2018-07-05T03:09:31.983Z,963.88
2018-07-05T03:10:31.936Z,963.91
2018-07-05T03:11:31.936Z,963.88
2018-07-05T03:12:31.845Z,963.89
2018-07-05T03:13:31.798Z,963.95
2018-07-05T03:14:31.756Z,963.95
2018-07-05T03:15:31.709Z,964.02
2018-07-05T03:16:31.712Z,964.02
2018-07-05T03:17:31.619Z,964.03
2018-07-05T03:18:31.571Z,964.01
2018-07-05T03:19:31.527Z,963.99
2018-07-05T03:20:31.482Z,964.01
2018-07-05T03:21:31.469Z,964.00
2018-07-05T03:22:31.393Z,964.01
2018-07-05T03:23:31.345Z,964.04
2018-07-05T03:24:31.331Z,964.04
2018-07-05T03:25:31.257Z,964.10
2018-07-05T03:26:31.208Z,964.09
2018-07-05T03:27:31.203Z,964.07
2018-07-05T03:28:31.122Z,964.09
2018-07-05T03:29:31.073Z,964.05
2018-07-05T03:30:31.028Z,964.07
2018-07-05T03:31:30.982Z,964.05
2018-07-05T03:32:30.975Z,964.07
2018-07-05T03:33:30.895Z,964.08
2018-07-05T03:34:30.896Z,964.07
2018-07-05T03:35:30.799Z,964.07
2018-07-05T03:36:30.765Z,964.04
2018-07-05T03:37:30.721Z,964.06
2018-07-05T03:38:30.662Z,964.08
2018-07-05T03:39:30.650Z,964.11
2018-07-05T03:40:30.576Z,964.12
2018-07-05T03:41:30.529Z,964.09
2018-07-05T03:42:30.513Z,964.06
2018-07-05T03:43:30.442Z,964.09
2018-07-05T03:44:30.398Z,964.08
2018-07-05T03:45:30.388Z,964.07
2018-07-05T03:46:30.301Z,964.05
2018-07-05T03:47:30.266Z,964.07
2018-07-05T03:48:30.210Z,964.08
2018-07-05T03:49:30.164Z,964.06
2018-07-05T03:50:30.162Z,964.05
2018-07-05T03:51:30.098Z,964.04
2018-07-05T03:52:30.027Z,964.04
2018-07-05T03:53:30.009Z,964.03
2018-07-05T03:54:29.935Z,964.04
2018-07-05T03:55:29.922Z,964.05
2018-07-05T03:56:29.877Z,964.05
2018-07-05T03:57:29.796Z,964.05
2018-07-05T03:58:29.752Z,964.03
2018-07-05T03:59:29.708Z,964.01
2018-07-05T04:00:29.661Z,963.96
2018-07-05T04:01:29.649Z,963.95
2018-07-05T04:02:29.618Z,963.95
2018-07-05T04:03:29.524Z,963.93
2018-07-05T04:04:29.483Z,963.90
2018-07-05T04:05:29.479Z,963.88
2018-07-05T04:06:29.389Z,963.87
2018-07-05T04:07:29.343Z,963.87
2018-07-05T04:08:29.310Z,963.87
2018-07-05T04:09:29.252Z,963.88
2018-07-05T04:10:29.235Z,963.89
2018-07-05T04:11:29.182Z,963.88
2018-07-05T04:12:29.145Z,963.93
2018-07-05T04:13:29.076Z,963.95
2018-07-05T04:14:29.028Z,963.91
2018-07-05T04:15:28.976Z,963.92
2018-07-05T04:16:28.934Z,963.94
2018-07-05T04:17:28.928Z,963.91
2018-07-05T04:18:28.850Z,963.92
2018-07-05T04:19:28.795Z,963.93
2018-07-05T04:20:28.752Z,963.94
2018-07-05T04:21:28.706Z,964.00
2018-07-05T04:22:28.690Z,964.01
2018-07-05T04:23:28.653Z,963.99
2018-07-05T04:24:28.568Z,964.01
2018-07-05T04:25:28.523Z,963.98
2018-07-05T04:26:28.476Z,964.01
2018-07-05T04:27:28.432Z,964.03
2018-07-05T04:28:28.432Z,964.02
2018-07-05T04:29:28.344Z,964.04
2018-07-05T04:30:28.300Z,963.97
2018-07-05T04:31:28.249Z,964.00
2018-07-05T04:32:28.205Z,964.03
2018-07-05T04:33:28.189Z,963.98
2018-07-05T04:34:28.110Z,963.99
2018-07-05T04:35:28.068Z,964.00
2018-07-05T04:36:28.021Z,963.98
2018-07-05T04:37:27.977Z,963.96
2018-07-05T04:38:27.964Z,963.99
2018-07-05T04:39:27.916Z,963.96
2018-07-05T04:40:27.838Z,963.95
2018-07-05T04:41:27.793Z,963.95
2018-07-05T04:42:27.790Z,963.93
2018-07-05T04:43:27.706Z,963.92
2018-07-05T04:44:27.691Z,963.95
2018-07-05T04:45:27.614Z,963.96
2018-07-05T04:46:27.584Z,963.97
2018-07-05T04:47:27.520Z,963.96
2018-07-05T04:48:27.479Z,963.94
2018-07-05T04:49:27.462Z,963.96
2018-07-05T04:50:27.420Z,963.96
2018-07-05T04:51:27.339Z,963.93
2018-07-05T04:52:27.332Z,963.95
2018-07-05T04:53:27.251Z,963.98
2018-07-05T04:54:27.202Z,963.97
2018-07-05T04:55:27.233Z,963.99
2018-07-05T04:56:27.113Z,963.99
2018-07-05T04:57:27.113Z,964.01
2018-07-05T04:58:27.020Z,964.00
2018-07-05T04:59:26.977Z,964.01
2018-07-05T05:00:26.933Z,963.97
2018-07-05T05:01:26.885Z,964.03
2018-07-05T05:02:26.940Z,964.03
2018-07-05T05:03:26.799Z,964.05
2018-07-05T05:04:26.751Z,964.06
2018-07-05T05:05:26.706Z,964.06
2018-07-05T05:06:26.665Z,964.05
2018-07-05T05:07:26.667Z,964.07
2018-07-05T05:08:26.572Z,964.07
2018-07-05T05:09:26.533Z,964.05
2018-07-05T05:10:26.607Z,964.02
2018-07-05T05:11:26.433Z,964.03
2018-07-05T05:12:26.390Z,964.04
2018-07-05T05:13:26.344Z,964.06
2018-07-05T05:14:26.298Z,964.05
2018-07-05T05:15:26.286Z,964.05
2018-07-05T05:16:26.218Z,964.04
2018-07-05T05:17:26.205Z,963.98
2018-07-05T05:18:26.117Z,963.97
2018-07-05T05:19:26.074Z,963.97
2018-07-05T05:20:26.031Z,963.98
2018-07-05T05:21:25.982Z,963.95
2018-07-05T05:22:25.969Z,963.93
2018-07-05T05:23:25.892Z,963.96
2018-07-05T05:24:25.849Z,963.96
2018-07-05T05:25:25.805Z,963.94
2018-07-05T05:26:25.788Z,963.97
2018-07-05T05:27:25.725Z,963.98
2018-07-05T05:28:25.706Z,963.98
2018-07-05T05:29:25.624Z,964.02
2018-07-05T05:30:25.576Z,963.99
2018-07-05T05:31:25.533Z,963.96
2018-07-05T05:32:25.491Z,963.94
2018-07-05T05:33:25.480Z,963.97
2018-07-05T05:34:25.403Z,963.92
2018-07-05T05:35:25.384Z,963.93
2018-07-05T05:36:25.312Z,963.95
2018-07-05T05:37:25.265Z,963.91
2018-07-05T05:38:25.263Z,963.95
2018-07-05T05:39:25.176Z,963.90
2018-07-05T05:40:25.132Z,963.94
2018-07-05T05:41:25.087Z,963.94
2018-07-05T05:42:25.044Z,963.95
2018-07-05T05:43:25.045Z,964.02
2018-07-05T05:44:24.963Z,963.99
2018-07-05T05:45:24.909Z,964.04
2018-07-05T05:46:24.870Z,964.03
2018-07-05T05:47:24.821Z,964.05
2018-07-05T05:48:24.818Z,964.07
2018-07-05T05:49:24.732Z,964.05
2018-07-05T05:50:24.686Z,964.07
2018-07-05T05:51:24.646Z,964.05
2018-07-05T05:52:24.602Z,964.03
2018-07-05T05:53:24.590Z,963.99
2018-07-05T05:54:24.514Z,963.98
2018-07-05T05:55:24.467Z,963.99
2018-07-05T05:56:24.454Z,963.97
2018-07-05T05:57:24.379Z,963.98
2018-07-05T05:58:24.336Z,963.96
2018-07-05T05:59:24.290Z,964.00
2018-07-05T06:00:24.248Z,963.99
2018-07-05T06:01:24.234Z,964.01
2018-07-05T06:02:24.159Z,963.99
2018-07-05T06:03:24.116Z,963.95
2018-07-05T06:04:24.072Z,963.96
2018-07-05T06:05:24.026Z,963.96
2018-07-05T06:06:24.018Z,963.96
2018-07-05T06:07:23.974Z,963.94
2018-07-05T06:08:23.895Z,963.93
2018-07-05T06:09:23.857Z,963.93
2018-07-05T06:10:23.808Z,963.92
2018-07-05T06:11:23.768Z,963.93
2018-07-05T06:12:23.753Z,963.92
2018-07-05T06:13:23.676Z,963.88
2018-07-05T06:14:23.633Z,963.85
2018-07-05T06:15:23.616Z,963.84
2018-07-05T06:16:23.549Z,963.85
2018-07-05T06:17:23.539Z,963.82
2018-07-05T06:18:23.462Z,963.81
2018-07-05T06:19:23.450Z,963.79
2018-07-05T06:20:23.376Z,963.82
2018-07-05T06:21:23.330Z,963.81
2018-07-05T06:22:23.285Z,963.81
2018-07-05T06:23:23.240Z,963.85
2018-07-05T06:24:23.230Z,963.81
2018-07-05T06:25:23.155Z,963.84
2018-07-05T06:26:23.111Z,963.84
2018-07-05T06:27:23.072Z,963.85
2018-07-05T06:28:23.026Z,963.89
2018-07-05T06:29:23.019Z,963.87
2018-07-05T06:30:22.939Z,963.90
2018-07-05T06:31:22.939Z,963.93
2018-07-05T06:32:22.858Z,963.94
2018-07-05T06:33:22.810Z,963.92
2018-07-05T06:34:22.779Z,963.89
2018-07-05T06:35:22.724Z,963.90
2018-07-05T06:36:22.723Z,963.94
2018-07-05T06:37:22.639Z,963.93
2018-07-05T06:38:22.595Z,963.96
2018-07-05T06:39:22.551Z,963.99
2018-07-05T06:40:22.514Z,964.00
2018-07-05T06:41:22.496Z,964.07
2018-07-05T06:42:22.426Z,964.02
2018-07-05T06:43:22.380Z,964.03
2018-07-05T06:44:22.336Z,964.07
2018-07-05T06:45:22.295Z,964.10
2018-07-05T06:46:22.282Z,964.07
2018-07-05T06:47:22.214Z,964.05
2018-07-05T06:48:22.166Z,964.08
2018-07-05T06:49:22.193Z,964.05
2018-07-05T06:50:22.080Z,964.10
2018-07-05T06:51:22.076Z,964.07
2018-07-05T06:52:21.995Z,964.05
2018-07-05T06:53:21.951Z,964.08
2018-07-05T06:54:21.907Z,964.05
2018-07-05T06:55:21.867Z,964.04
2018-07-05T06:56:21.868Z,964.05
2018-07-05T06:57:21.784Z,964.03
2018-07-05T06:58:21.738Z,964.01
2018-07-05T06:59:21.697Z,964.04
2018-07-05T07:00:21.654Z,964.02
2018-07-05T07:01:21.643Z,964.05
2018-07-05T07:02:21.569Z,964.03
2018-07-05T07:03:21.560Z,964.03
2018-07-05T07:04:21.485Z,964.03
2018-07-05T07:05:21.492Z,964.01
2018-07-05T07:06:21.398Z,963.97
2018-07-05T07:07:21.356Z,964.00
2018-07-05T07:08:21.314Z,964.01
2018-07-05T07:09:21.271Z,963.99
2018-07-05T07:10:21.265Z,964.00
2018-07-05T07:11:21.187Z,964.00
2018-07-05T07:12:21.148Z,964.04
2018-07-05T07:13:21.136Z,964.06
2018-07-05T07:14:21.062Z,964.04
2018-07-05T07:15:21.021Z,964.05
2018-07-05T07:16:20.976Z,964.03
2018-07-05T07:17:20.933Z,964.06
2018-07-05T07:18:20.924Z,964.04
2018-07-05T07:19:20.850Z,964.04
2018-07-05T07:20:20.813Z,964.05
2018-07-05T07:21:20.764Z,964.02
2018-07-05T07:22:20.762Z,964.01
2018-07-05T07:23:20.684Z,964.01
2018-07-05T07:24:20.671Z,963.98
2018-07-05T07:25:20.604Z,963.99
2018-07-05T07:26:20.556Z,963.95
2018-07-05T07:27:20.541Z,963.98
2018-07-05T07:28:20.474Z,963.95
2018-07-05T07:29:20.468Z,963.98
2018-07-05T07:30:20.393Z,963.95
2018-07-05T07:31:20.387Z,963.96
2018-07-05T07:32:20.307Z,964.01
2018-07-05T07:33:20.265Z,964.03
2018-07-05T07:34:20.254Z,964.01
2018-07-05T07:35:20.181Z,963.99
2018-07-05T07:36:20.193Z,964.02
2018-07-05T07:37:20.107Z,964.04
2018-07-05T07:38:20.056Z,964.01
2018-07-05T07:39:20.019Z,964.00
2018-07-05T07:40:19.975Z,964.02
2018-07-05T07:41:19.972Z,963.99
2018-07-05T07:42:19.892Z,964.01
2018-07-05T07:43:19.852Z,964.00
2018-07-05T07:44:19.807Z,963.97
2018-07-05T07:45:19.770Z,963.97
2018-07-05T07:46:19.764Z,963.98
2018-07-05T07:47:19.684Z,963.99
2018-07-05T07:48:19.643Z,963.97
2018-07-05T07:49:19.601Z,963.97
2018-07-05T07:50:19.559Z,963.92
2018-07-05T07:51:19.618Z,963.91
2018-07-05T07:52:19.482Z,963.90
2018-07-05T07:53:19.438Z,963.91
2018-07-05T07:54:19.436Z,963.90
2018-07-05T07:55:19.355Z,963.91
2018-07-05T07:56:19.312Z,963.91
2018-07-05T07:57:19.273Z,963.88
2018-07-05T07:58:19.368Z,963.91
2018-07-05T07:59:19.223Z,963.90
2018-07-05T08:00:19.150Z,963.93
2018-07-05T08:01:19.139Z,963.93
2018-07-05T08:02:19.073Z,963.91
2018-07-05T08:03:19.029Z,963.90
2018-07-05T08:04:18.987Z,963.90
2018-07-05T08:05:18.946Z,963.92
2018-07-05T08:06:18.939Z,963.92
2018-07-05T08:07:18.863Z,963.94
2018-07-05T08:08:18.899Z,963.96
2018-07-05T08:09:18.781Z,963.96
2018-07-05T08:10:18.747Z,963.92
2018-07-05T08:11:18.740Z,963.92
2018-07-05T08:12:18.669Z,963.93
2018-07-05T08:13:18.619Z,963.94
2018-07-05T08:14:18.580Z,963.91
2018-07-05T08:15:18.540Z,963.92
2018-07-05T08:16:18.530Z,963.92
2018-07-05T08:17:18.457Z,963.93
2018-07-05T08:18:18.420Z,963.93
2018-07-05T08:19:18.379Z,963.92
2018-07-05T08:20:18.338Z,963.91
2018-07-05T08:21:18.337Z,963.93
2018-07-05T08:22:18.258Z,963.91
2018-07-05T08:23:18.218Z,963.85
2018-07-05T08:24:18.176Z,963.89
2018-07-05T08:25:18.138Z,963.89
2018-07-05T08:26:18.129Z,963.84
2018-07-05T08:27:18.059Z,963.82
2018-07-05T08:28:18.020Z,963.82
2018-07-05T08:29:17.978Z,963.81
2018-07-05T08:30:17.973Z,963.80
2018-07-05T08:31:17.909Z,963.77
2018-07-05T08:32:17.894Z,963.76
2018-07-05T08:33:17.821Z,963.76
2018-07-05T08:34:17.782Z,963.77
2018-07-05T08:35:17.743Z,963.75
2018-07-05T08:36:17.702Z,963.77
2018-07-05T08:37:17.705Z,963.79
2018-07-05T08:38:17.623Z,963.80
2018-07-05T08:39:17.584Z,963.83
2018-07-05T08:40:17.545Z,963.82
2018-07-05T08:41:17.505Z,963.80
2018-07-05T08:42:17.497Z,963.81
2018-07-05T08:43:17.424Z,963.79
2018-07-05T08:44:17.392Z,963.78
2018-07-05T08:45:17.350Z,963.75
2018-07-05T08:46:17.309Z,963.74
2018-07-05T08:47:17.303Z,963.74
2018-07-05T08:48:17.268Z,963.72
2018-07-05T08:49:17.206Z,963.71
2018-07-05T08:50:17.154Z,963.72
2018-07-05T08:51:17.187Z,963.75
2018-07-05T08:52:17.081Z,963.73
2018-07-05T08:53:17.036Z,963.75
2018-07-05T08:54:17.002Z,963.71
2018-07-05T08:55:16.959Z,963.71
2018-07-05T08:56:16.955Z,963.69
2018-07-05T08:57:16.882Z,963.70
2018-07-05T08:58:16.884Z,963.65
2018-07-05T08:59:16.841Z,963.70
2018-07-05T09:00:16.771Z,963.71
2018-07-05T09:01:16.734Z,963.67
2018-07-05T09:02:16.722Z,963.71
2018-07-05T09:03:16.659Z,963.69
2018-07-05T09:04:16.653Z,963.66
2018-07-05T09:05:16.581Z,963.66
2018-07-05T09:06:16.541Z,963.72
2018-07-05T09:07:16.502Z,963.72
2018-07-05T09:08:16.462Z,963.71
2018-07-05T09:09:16.471Z,963.74
2018-07-05T09:10:16.391Z,963.73
2018-07-05T09:11:16.350Z,963.75
2018-07-05T09:12:16.313Z,963.72
2018-07-05T09:13:16.271Z,963.69
2018-07-05T09:14:16.275Z,963.74
2018-07-05T09:15:16.196Z,963.69
2018-07-05T09:16:16.165Z,963.66
2018-07-05T09:17:16.122Z,963.70
2018-07-05T09:18:16.196Z,963.68
2018-07-05T09:19:16.083Z,963.67
2018-07-05T09:20:16.026Z,963.68
2018-07-05T09:21:15.971Z,963.63
2018-07-05T09:22:15.939Z,963.64
2018-07-05T09:23:15.959Z,963.63
2018-07-05T09:24:15.889Z,963.59
2018-07-05T09:25:15.821Z,963.63
2018-07-05T09:26:15.783Z,963.62
2018-07-05T09:27:15.745Z,963.60
2018-07-05T09:28:15.744Z,963.56
2018-07-05T09:29:15.701Z,963.59
2018-07-05T09:30:15.631Z,963.61
2018-07-05T09:31:15.710Z,963.61
2018-07-05T09:32:15.557Z,963.63
2018-07-05T09:33:15.551Z,963.63
2018-07-05T09:34:15.532Z,963.65
2018-07-05T09:35:15.448Z,963.62
2018-07-05T09:36:15.410Z,963.62
2018-07-05T09:37:15.384Z,963.59
2018-07-05T09:38:15.335Z,963.61
2018-07-05T09:39:15.329Z,963.50
2018-07-05T09:40:15.263Z,963.60
2018-07-05T09:41:15.238Z,963.57
2018-07-05T09:42:15.191Z,963.51
2018-07-05T09:43:15.191Z,963.54
2018-07-05T09:44:15.116Z,963.57
2018-07-05T09:45:15.079Z,963.62
2018-07-05T09:46:15.042Z,963.54
2018-07-05T09:47:15.006Z,963.54
2018-07-05T09:48:15.001Z,963.50
2018-07-05T09:49:14.933Z,963.54
2018-07-05T09:50:14.935Z,963.56
2018-07-05T09:51:14.860Z,963.61
2018-07-05T09:52:14.823Z,963.64
2018-07-05T09:53:14.792Z,963.64
2018-07-05T09:54:14.749Z,963.62
2018-07-05T09:55:14.746Z,963.58
2018-07-05T09:56:14.727Z,963.57
2018-07-05T09:57:14.643Z,963.57
2018-07-05T09:58:14.605Z,963.67
2018-07-05T09:59:14.571Z,963.64
2018-07-05T10:00:14.534Z,963.59
2018-07-05T10:01:14.532Z,963.54
2018-07-05T10:02:14.462Z,963.51
2018-07-05T10:03:14.427Z,963.53
2018-07-05T10:04:14.389Z,963.54
2018-07-05T10:05:14.352Z,963.57
2018-07-05T10:06:14.347Z,963.52
2018-07-05T10:07:14.280Z,963.61
2018-07-05T10:08:14.292Z,963.56
2018-07-05T10:09:14.215Z,963.60
2018-07-05T10:10:14.171Z,963.59
2018-07-05T10:11:14.133Z,963.56
2018-07-05T10:12:14.098Z,963.56
2018-07-05T10:13:14.192Z,963.59
2018-07-05T10:14:14.027Z,963.58
2018-07-05T10:15:13.991Z,963.55
2018-07-05T10:16:13.953Z,963.51
2018-07-05T10:17:13.925Z,963.54
2018-07-05T10:18:13.924Z,963.50
2018-07-05T10:19:13.845Z,963.50
2018-07-05T10:20:13.815Z,963.53
2018-07-05T10:21:13.773Z,963.51
2018-07-05T10:22:13.739Z,963.50
2018-07-05T10:23:13.736Z,963.48
2018-07-05T10:24:13.707Z,963.49
2018-07-05T10:25:13.628Z,963.45
2018-07-05T10:26:13.595Z,963.50
2018-07-05T10:27:13.559Z,963.56
2018-07-05T10:28:13.523Z,963.53
2018-07-05T10:29:13.512Z,963.52
2018-07-05T10:30:13.451Z,963.55
2018-07-05T10:31:13.415Z,963.53
2018-07-05T10:32:13.381Z,963.53
2018-07-05T10:33:13.345Z,963.53
2018-07-05T10:34:13.346Z,963.56
2018-07-05T10:35:13.274Z,963.56
2018-07-05T10:36:13.238Z,963.57
2018-07-05T10:37:13.206Z,963.61
2018-07-05T10:38:13.191Z,963.60
2018-07-05T10:39:13.168Z,963.55
2018-07-05T10:40:13.100Z,963.56
2018-07-05T10:41:13.068Z,963.59
2018-07-05T10:42:13.027Z,963.57
2018-07-05T10:43:13.029Z,963.55
2018-07-05T10:44:12.958Z,963.55
2018-07-05T10:45:12.921Z,963.56
2018-07-05T10:46:12.922Z,963.53
2018-07-05T10:47:12.855Z,963.51
2018-07-05T10:48:12.816Z,963.53
2018-07-05T10:49:12.822Z,963.52
2018-07-05T10:50:12.748Z,963.57
2018-07-05T10:51:12.709Z,963.55
2018-07-05T10:52:12.684Z,963.53
2018-07-05T10:53:12.640Z,963.48
2018-07-05T10:54:12.638Z,963.48
2018-07-05T10:55:12.608Z,963.53
2018-07-05T10:56:12.576Z,963.53
2018-07-05T10:57:12.499Z,963.53
2018-07-05T10:58:12.470Z,963.51
2018-07-05T10:59:12.432Z,963.54
2018-07-05T11:00:12.397Z,963.53
2018-07-05T11:01:12.440Z,963.56
2018-07-05T11:02:12.326Z,963.54
2018-07-05T11:03:12.323Z,963.58
2018-07-05T11:04:12.255Z,963.57
2018-07-05T11:05:12.223Z,963.56
2018-07-05T11:06:12.218Z,963.46
2018-07-05T11:07:12.168Z,963.49
2018-07-05T11:08:12.116Z,963.51
2018-07-05T11:09:12.112Z,963.43
2018-07-05T11:10:12.044Z,963.51
2018-07-05T11:11:12.013Z,963.50
2018-07-05T11:12:12.007Z,963.53
2018-07-05T11:13:11.939Z,963.51
2018-07-05T11:14:11.904Z,963.55
2018-07-05T11:15:11.868Z,963.47
2018-07-05T11:16:11.835Z,963.50
2018-07-05T11:17:11.845Z,963.41
2018-07-05T11:18:11.760Z,963.42
2018-07-05T11:19:11.726Z,963.38
2018-07-05T11:20:11.692Z,963.37
2018-07-05T11:21:11.654Z,963.40
2018-07-05T11:22:11.650Z,963.41
2018-07-05T11:23:11.584Z,963.34
2018-07-05T11:24:11.589Z,963.28
2018-07-05T11:25:11.512Z,963.28
2018-07-05T11:26:11.476Z,963.28
2018-07-05T11:27:12.324Z,963.32
2018-07-05T11:28:11.405Z,963.31
2018-07-05T11:29:11.409Z,963.33
2018-07-05T11:30:11.366Z,963.30
2018-07-05T11:31:11.300Z,963.36
2018-07-05T11:32:11.262Z,963.28
2018-07-05T11:33:11.229Z,963.28
2018-07-05T11:34:11.221Z,963.24
2018-07-05T11:35:11.156Z,963.29
2018-07-05T11:36:11.160Z,963.30
2018-07-05T11:37:11.149Z,963.31
2018-07-05T11:38:11.050Z,963.28
2018-07-05T11:39:11.012Z,963.26
2018-07-05T11:40:10.975Z,963.25
2018-07-05T11:41:10.991Z,963.26
2018-07-05T11:42:10.906Z,963.29
2018-07-05T11:43:10.870Z,963.26
2018-07-05T11:44:10.837Z,963.27
2018-07-05T11:45:10.804Z,963.28
2018-07-05T11:46:10.800Z,963.26
2018-07-05T11:47:10.733Z,963.28
2018-07-05T11:48:10.700Z,963.33
2018-07-05T11:49:10.658Z,963.29
2018-07-05T11:50:10.655Z,963.37
2018-07-05T11:51:10.589Z,963.31
2018-07-05T11:52:10.569Z,963.38
2018-07-05T11:53:10.519Z,963.30
2018-07-05T11:54:10.488Z,963.26
2018-07-05T11:55:10.481Z,963.26
2018-07-05T11:56:10.444Z,963.21
2018-07-05T11:57:10.378Z,963.21
2018-07-05T11:58:10.347Z,963.16
2018-07-05T11:59:10.307Z,963.21
2018-07-05T12:00:10.468Z,963.15
2018-07-05T12:01:10.239Z,963.14
2018-07-05T12:02:10.205Z,963.10
2018-07-05T12:03:10.203Z,963.12
2018-07-05T12:04:10.150Z,963.12
2018-07-05T12:05:10.135Z,963.13
2018-07-05T12:06:10.070Z,963.13
2018-07-05T12:07:10.033Z,963.15
2018-07-05T12:08:10.034Z,963.13
2018-07-05T12:09:09.961Z,963.09
2018-07-05T12:10:09.981Z,963.10
2018-07-05T12:11:09.896Z,963.13
2018-07-05T12:12:09.859Z,963.14
2018-07-05T12:13:09.826Z,963.20
2018-07-05T12:14:09.791Z,963.20
2018-07-05T12:15:09.786Z,963.22
2018-07-05T12:16:09.760Z,963.18
2018-07-05T12:17:09.689Z,963.25
2018-07-05T12:18:09.654Z,963.21
2018-07-05T12:19:09.652Z,963.29
2018-07-05T12:20:09.588Z,963.24
2018-07-05T12:21:09.550Z,963.21
2018-07-05T12:22:09.516Z,963.19
2018-07-05T12:23:09.480Z,963.16
2018-07-05T12:24:09.534Z,963.11
2018-07-05T12:25:09.446Z,963.08
2018-07-05T12:26:09.380Z,963.10
2018-07-05T12:27:09.376Z,962.99
2018-07-05T12:28:09.310Z,963.04